sensor_id;sensor_type;location;lat;lon;timestamp;temperature;humidity
44435;DHT22;30138;20.964;105.830;2023-07-02T00:04:27;31.20;82.20
44435;DHT22;30138;20.964;105.830;2023-07-02T00:09:36;31.20;82.40
44435;DHT22;30138;20.964;105.830;2023-07-02T00:14:42;31.30;82.80
44435;DHT22;30138;20.964;105.830;2023-07-02T00:19:49;31.30;83.10
44435;DHT22;30138;20.964;105.830;2023-07-02T00:24:57;31.30;83.40
44435;DHT22;30138;20.964;105.830;2023-07-02T00:30:04;31.30;83.70
44435;DHT22;30138;20.964;105.830;2023-07-02T00:35:12;31.30;84.00
44435;DHT22;30138;20.964;105.830;2023-07-02T00:40:21;31.30;84.30
44435;DHT22;30138;20.964;105.830;2023-07-02T00:45:28;31.40;84.70
44435;DHT22;30138;20.964;105.830;2023-07-02T00:50:35;31.40;84.90
44435;DHT22;30138;20.964;105.830;2023-07-02T00:55:43;31.40;85.10
44435;DHT22;30138;20.964;105.830;2023-07-02T01:00:51;31.40;85.40
44435;DHT22;30138;20.964;105.830;2023-07-02T01:05:59;31.40;85.60
44435;DHT22;30138;20.964;105.830;2023-07-02T01:11:08;31.50;86.00
44435;DHT22;30138;20.964;105.830;2023-07-02T01:16:18;31.50;86.20
44435;DHT22;30138;20.964;105.830;2023-07-02T01:21:27;31.50;86.50
44435;DHT22;30138;20.964;105.830;2023-07-02T01:26:35;31.50;86.60
44435;DHT22;30138;20.964;105.830;2023-07-02T01:31:41;31.60;86.90
44435;DHT22;30138;20.964;105.830;2023-07-02T01:36:50;31.60;87.10
44435;DHT22;30138;20.964;105.830;2023-07-02T01:42:07;31.70;87.30
44435;DHT22;30138;20.964;105.830;2023-07-02T01:47:14;31.70;87.50
44435;DHT22;30138;20.964;105.830;2023-07-02T01:52:24;31.70;87.80
44435;DHT22;30138;20.964;105.830;2023-07-02T01:57:32;31.70;88.20
44435;DHT22;30138;20.964;105.830;2023-07-02T02:02:39;31.70;88.50
44435;DHT22;30138;20.964;105.830;2023-07-02T02:07:48;31.80;88.80
44435;DHT22;30138;20.964;105.830;2023-07-02T02:12:54;31.80;89.10
44435;DHT22;30138;20.964;105.830;2023-07-02T02:18:01;31.80;89.40
44435;DHT22;30138;20.964;105.830;2023-07-02T02:23:09;31.80;89.50
44435;DHT22;30138;20.964;105.830;2023-07-02T02:28:15;31.80;89.90
44435;DHT22;30138;20.964;105.830;2023-07-02T02:33:22;31.90;90.10
44435;DHT22;30138;20.964;105.830;2023-07-02T02:38:31;31.90;90.20
44435;DHT22;30138;20.964;105.830;2023-07-02T02:43:42;31.90;90.30
44435;DHT22;30138;20.964;105.830;2023-07-02T02:48:51;32.00;90.40
44435;DHT22;30138;20.964;105.830;2023-07-02T02:54:00;32.00;90.60
44435;DHT22;30138;20.964;105.830;2023-07-02T02:59:07;32.00;90.70
44435;DHT22;30138;20.964;105.830;2023-07-02T03:04:14;32.00;90.80
44435;DHT22;30138;20.964;105.830;2023-07-02T03:09:22;32.10;90.90
44435;DHT22;30138;20.964;105.830;2023-07-02T03:14:29;32.10;91.00
44435;DHT22;30138;20.964;105.830;2023-07-02T03:19:36;32.10;91.10
44435;DHT22;30138;20.964;105.830;2023-07-02T03:24:45;32.20;91.20
44435;DHT22;30138;20.964;105.830;2023-07-02T03:29:52;32.20;88.50
44435;DHT22;30138;20.964;105.830;2023-07-02T03:34:58;32.10;73.30
44435;DHT22;30138;20.964;105.830;2023-07-02T03:40:08;31.80;64.10
44435;DHT22;30138;20.964;105.830;2023-07-02T03:45:15;31.60;59.10
44435;DHT22;30138;20.964;105.830;2023-07-02T03:50:22;31.30;56.10
44435;DHT22;30138;20.964;105.830;2023-07-02T03:55:30;31.10;54.00
44435;DHT22;30138;20.964;105.830;2023-07-02T04:00:37;30.90;52.50
44435;DHT22;30138;20.964;105.830;2023-07-02T04:05:45;30.70;51.20
44435;DHT22;30138;20.964;105.830;2023-07-02T04:10:53;30.50;50.20
44435;DHT22;30138;20.964;105.830;2023-07-02T04:16:00;30.40;49.20
44435;DHT22;30138;20.964;105.830;2023-07-02T04:21:07;30.30;48.70
44435;DHT22;30138;20.964;105.830;2023-07-02T04:26:15;30.10;48.10
44435;DHT22;30138;20.964;105.830;2023-07-02T04:31:21;30.00;47.50
44435;DHT22;30138;20.964;105.830;2023-07-02T04:36:30;29.90;47.20
44435;DHT22;30138;20.964;105.830;2023-07-02T04:41:37;29.80;46.70
44435;DHT22;30138;20.964;105.830;2023-07-02T04:46:44;29.70;46.30
44435;DHT22;30138;20.964;105.830;2023-07-02T04:51:50;29.70;46.00
44435;DHT22;30138;20.964;105.830;2023-07-02T04:56:58;29.60;45.80
44435;DHT22;30138;20.964;105.830;2023-07-02T05:02:04;29.60;45.60
44435;DHT22;30138;20.964;105.830;2023-07-02T05:07:11;29.50;45.10
44435;DHT22;30138;20.964;105.830;2023-07-02T05:12:19;29.40;44.80
44435;DHT22;30138;20.964;105.830;2023-07-02T05:17:26;29.40;44.50
44435;DHT22;30138;20.964;105.830;2023-07-02T05:22:33;29.40;44.30
44435;DHT22;30138;20.964;105.830;2023-07-02T05:27:41;29.30;45.50
44435;DHT22;30138;20.964;105.830;2023-07-02T05:32:47;29.40;49.30
44435;DHT22;30138;20.964;105.830;2023-07-02T05:37:53;29.40;47.60
44435;DHT22;30138;20.964;105.830;2023-07-02T05:43:02;29.40;46.50
44435;DHT22;30138;20.964;105.830;2023-07-02T05:48:09;29.40;45.50
44435;DHT22;30138;20.964;105.830;2023-07-02T05:53:16;29.30;44.90
44435;DHT22;30138;20.964;105.830;2023-07-02T05:58:24;29.40;49.10
44435;DHT22;30138;20.964;105.830;2023-07-02T06:03:31;29.40;48.60
44435;DHT22;30138;20.964;105.830;2023-07-02T06:08:38;29.50;50.90
44435;DHT22;30138;20.964;105.830;2023-07-02T06:13:46;29.50;56.00
44435;DHT22;30138;20.964;105.830;2023-07-02T06:18:52;29.60;58.10
44435;DHT22;30138;20.964;105.830;2023-07-02T06:24:02;29.60;53.70
44435;DHT22;30138;20.964;105.830;2023-07-02T06:29:11;29.70;68.20
44435;DHT22;30138;20.964;105.830;2023-07-02T06:34:18;29.80;85.10
44435;DHT22;30138;20.964;105.830;2023-07-02T06:39:25;30.10;91.70
44435;DHT22;30138;20.964;105.830;2023-07-02T06:44:33;30.20;82.20
44435;DHT22;30138;20.964;105.830;2023-07-02T06:49:39;30.20;68.20
44435;DHT22;30138;20.964;105.830;2023-07-02T06:54:46;30.20;61.10
44435;DHT22;30138;20.964;105.830;2023-07-02T06:59:58;30.10;57.90
44435;DHT22;30138;20.964;105.830;2023-07-02T07:05:07;30.00;54.80
44435;DHT22;30138;20.964;105.830;2023-07-02T07:10:14;29.90;54.80
44435;DHT22;30138;20.964;105.830;2023-07-02T07:15:24;30.00;63.80
44435;DHT22;30138;20.964;105.830;2023-07-02T07:20:31;30.00;57.40
44435;DHT22;30138;20.964;105.830;2023-07-02T07:25:37;29.90;53.30
44435;DHT22;30138;20.964;105.830;2023-07-02T07:30:48;29.90;50.60
44435;DHT22;30138;20.964;105.830;2023-07-02T07:35:55;29.80;49.30
44435;DHT22;30138;20.964;105.830;2023-07-02T07:41:02;29.60;47.30
44435;DHT22;30138;20.964;105.830;2023-07-02T07:46:11;29.50;46.20
44435;DHT22;30138;20.964;105.830;2023-07-02T07:51:18;29.40;45.50
44435;DHT22;30138;20.964;105.830;2023-07-02T07:56:24;29.40;54.90
44435;DHT22;30138;20.964;105.830;2023-07-02T08:01:32;29.40;56.30
44435;DHT22;30138;20.964;105.830;2023-07-02T08:06:41;29.40;58.60
44435;DHT22;30138;20.964;105.830;2023-07-02T08:11:48;29.50;56.30
44435;DHT22;30138;20.964;105.830;2023-07-02T08:17:06;29.40;52.10
44435;DHT22;30138;20.964;105.830;2023-07-02T08:22:13;29.20;50.00
44435;DHT22;30138;20.964;105.830;2023-07-02T08:27:19;29.10;49.30
44435;DHT22;30138;20.964;105.830;2023-07-02T08:32:27;29.00;47.50
44435;DHT22;30138;20.964;105.830;2023-07-02T08:37:35;28.90;46.60
44435;DHT22;30138;20.964;105.830;2023-07-02T08:42:41;28.70;46.30
44435;DHT22;30138;20.964;105.830;2023-07-02T08:47:49;28.90;69.10
44435;DHT22;30138;20.964;105.830;2023-07-02T08:52:57;29.10;65.40
44435;DHT22;30138;20.964;105.830;2023-07-02T08:58:04;28.90;57.70
44435;DHT22;30138;20.964;105.830;2023-07-02T09:03:16;29.00;59.10
44435;DHT22;30138;20.964;105.830;2023-07-02T09:08:26;29.20;61.00
44435;DHT22;30138;20.964;105.830;2023-07-02T09:13:42;28.80;56.20
44435;DHT22;30138;20.964;105.830;2023-07-02T09:19:02;29.00;52.60
44435;DHT22;30138;20.964;105.830;2023-07-02T09:24:15;29.10;55.40
44435;DHT22;30138;20.964;105.830;2023-07-02T09:29:23;29.20;51.80
44435;DHT22;30138;20.964;105.830;2023-07-02T09:34:34;29.30;55.00
44435;DHT22;30138;20.964;105.830;2023-07-02T09:39:41;29.20;51.40
44435;DHT22;30138;20.964;105.830;2023-07-02T09:44:47;29.20;49.90
44435;DHT22;30138;20.964;105.830;2023-07-02T09:50:00;29.20;52.40
44435;DHT22;30138;20.964;105.830;2023-07-02T09:55:11;29.20;49.30
44435;DHT22;30138;20.964;105.830;2023-07-02T10:00:18;29.20;52.60
44435;DHT22;30138;20.964;105.830;2023-07-02T10:05:31;29.20;49.80
44435;DHT22;30138;20.964;105.830;2023-07-02T10:10:38;29.30;52.80
44435;DHT22;30138;20.964;105.830;2023-07-02T10:15:44;29.20;49.60
44435;DHT22;30138;20.964;105.830;2023-07-02T10:20:52;29.30;57.60
44435;DHT22;30138;20.964;105.830;2023-07-02T10:25:58;29.40;63.10
44435;DHT22;30138;20.964;105.830;2023-07-02T10:31:20;29.40;64.60
44435;DHT22;30138;20.964;105.830;2023-07-02T10:36:28;29.50;70.40
44435;DHT22;30138;20.964;105.830;2023-07-02T10:41:34;29.60;72.70
44435;DHT22;30138;20.964;105.830;2023-07-02T10:46:47;29.60;70.40
44435;DHT22;30138;20.964;105.830;2023-07-02T10:52:03;29.60;65.40
44435;DHT22;30138;20.964;105.830;2023-07-02T10:57:12;29.60;64.20
44435;DHT22;30138;20.964;105.830;2023-07-02T11:02:19;29.80;70.90
44435;DHT22;30138;20.964;105.830;2023-07-02T11:07:27;30.20;73.90
44435;DHT22;30138;20.964;105.830;2023-07-02T11:12:34;30.40;75.80
44435;DHT22;30138;20.964;105.830;2023-07-02T11:17:46;30.60;77.20
44435;DHT22;30138;20.964;105.830;2023-07-02T11:22:57;30.70;78.30
44435;DHT22;30138;20.964;105.830;2023-07-02T11:28:04;30.90;79.40
44435;DHT22;30138;20.964;105.830;2023-07-02T11:33:11;31.00;80.40
44435;DHT22;30138;20.964;105.830;2023-07-02T11:38:20;31.10;81.20
44435;DHT22;30138;20.964;105.830;2023-07-02T11:43:26;31.20;82.20
44435;DHT22;30138;20.964;105.830;2023-07-02T11:48:33;31.20;83.40
44435;DHT22;30138;20.964;105.830;2023-07-02T11:53:40;31.30;83.90
44435;DHT22;30138;20.964;105.830;2023-07-02T11:58:47;31.30;84.20
44435;DHT22;30138;20.964;105.830;2023-07-02T12:03:53;31.30;84.70
44435;DHT22;30138;20.964;105.830;2023-07-02T12:09:01;31.40;84.60
44435;DHT22;30138;20.964;105.830;2023-07-02T12:14:08;31.60;85.20
44435;DHT22;30138;20.964;105.830;2023-07-02T12:19:14;31.60;85.50
44435;DHT22;30138;20.964;105.830;2023-07-02T12:24:22;31.70;85.70
44435;DHT22;30138;20.964;105.830;2023-07-02T12:29:30;31.80;86.60
44435;DHT22;30138;20.964;105.830;2023-07-02T12:34:36;31.80;88.10
44435;DHT22;30138;20.964;105.830;2023-07-02T12:39:44;31.80;87.30
44435;DHT22;30138;20.964;105.830;2023-07-02T12:44:50;31.90;88.20
44435;DHT22;30138;20.964;105.830;2023-07-02T12:49:57;32.00;88.90
44435;DHT22;30138;20.964;105.830;2023-07-02T12:55:07;32.00;89.40
44435;DHT22;30138;20.964;105.830;2023-07-02T13:00:14;32.00;90.00
44435;DHT22;30138;20.964;105.830;2023-07-02T13:05:20;32.00;90.30
44435;DHT22;30138;20.964;105.830;2023-07-02T13:10:29;32.10;90.60
44435;DHT22;30138;20.964;105.830;2023-07-02T13:15:35;32.10;90.70
44435;DHT22;30138;20.964;105.830;2023-07-02T13:20:44;32.10;91.00
44435;DHT22;30138;20.964;105.830;2023-07-02T13:25:52;32.10;91.10
44435;DHT22;30138;20.964;105.830;2023-07-02T13:30:58;32.10;91.30
44435;DHT22;30138;20.964;105.830;2023-07-02T13:36:05;32.20;91.40
44435;DHT22;30138;20.964;105.830;2023-07-02T13:41:14;32.20;91.70
44435;DHT22;30138;20.964;105.830;2023-07-02T13:46:21;32.20;91.90
44435;DHT22;30138;20.964;105.830;2023-07-02T13:51:28;32.20;91.90
44435;DHT22;30138;20.964;105.830;2023-07-02T13:56:36;32.20;92.10
44435;DHT22;30138;20.964;105.830;2023-07-02T14:01:45;32.30;92.20
44435;DHT22;30138;20.964;105.830;2023-07-02T14:06:52;32.30;92.60
44435;DHT22;30138;20.964;105.830;2023-07-02T14:12:02;32.30;92.60
44435;DHT22;30138;20.964;105.830;2023-07-02T14:17:12;32.30;92.90
44435;DHT22;30138;20.964;105.830;2023-07-02T14:22:19;32.30;93.10
44435;DHT22;30138;20.964;105.830;2023-07-02T14:27:26;32.30;93.10
44435;DHT22;30138;20.964;105.830;2023-07-02T14:32:35;32.30;93.30
44435;DHT22;30138;20.964;105.830;2023-07-02T14:37:42;32.30;93.30
44435;DHT22;30138;20.964;105.830;2023-07-02T14:42:48;32.30;93.50
44435;DHT22;30138;20.964;105.830;2023-07-02T14:47:57;32.30;93.70
44435;DHT22;30138;20.964;105.830;2023-07-02T14:53:04;32.40;93.80
44435;DHT22;30138;20.964;105.830;2023-07-02T14:58:12;32.30;94.00
44435;DHT22;30138;20.964;105.830;2023-07-02T15:03:22;32.30;94.00
44435;DHT22;30138;20.964;105.830;2023-07-02T15:08:29;32.30;94.30
44435;DHT22;30138;20.964;105.830;2023-07-02T15:13:36;32.40;94.40
44435;DHT22;30138;20.964;105.830;2023-07-02T15:18:46;32.40;94.60
44435;DHT22;30138;20.964;105.830;2023-07-02T15:23:52;32.40;94.80
44435;DHT22;30138;20.964;105.830;2023-07-02T15:28:59;32.40;94.90
44435;DHT22;30138;20.964;105.830;2023-07-02T15:34:07;32.40;95.20
44435;DHT22;30138;20.964;105.830;2023-07-02T15:39:15;32.20;83.90
44435;DHT22;30138;20.964;105.830;2023-07-02T15:44:26;31.90;69.40
44435;DHT22;30138;20.964;105.830;2023-07-02T15:49:35;31.50;62.00
44435;DHT22;30138;20.964;105.830;2023-07-02T15:54:42;31.20;57.40
44435;DHT22;30138;20.964;105.830;2023-07-02T15:59:50;30.90;66.00
44435;DHT22;30138;20.964;105.830;2023-07-02T16:04:59;30.80;74.50
44435;DHT22;30138;20.964;105.830;2023-07-02T16:10:08;30.70;69.50
44435;DHT22;30138;20.964;105.830;2023-07-02T16:15:15;30.50;61.40
44435;DHT22;30138;20.964;105.830;2023-07-02T16:20:23;30.30;58.40
44435;DHT22;30138;20.964;105.830;2023-07-02T16:25:30;30.10;54.50
44435;DHT22;30138;20.964;105.830;2023-07-02T16:30:37;29.90;52.90
44435;DHT22;30138;20.964;105.830;2023-07-02T16:35:45;29.80;59.00
44435;DHT22;30138;20.964;105.830;2023-07-02T16:40:52;29.70;60.50
44435;DHT22;30138;20.964;105.830;2023-07-02T16:46:00;29.50;61.70
44435;DHT22;30138;20.964;105.830;2023-07-02T16:51:08;29.50;62.50
44435;DHT22;30138;20.964;105.830;2023-07-02T16:56:14;29.40;62.90
44435;DHT22;30138;20.964;105.830;2023-07-02T17:01:21;29.30;63.40
44435;DHT22;30138;20.964;105.830;2023-07-02T17:06:35;29.20;63.60
44435;DHT22;30138;20.964;105.830;2023-07-02T17:11:45;29.30;73.80
44435;DHT22;30138;20.964;105.830;2023-07-02T17:16:55;29.30;64.80
44435;DHT22;30138;20.964;105.830;2023-07-02T17:22:08;29.20;58.70
44435;DHT22;30138;20.964;105.830;2023-07-02T17:27:15;29.10;55.20
44435;DHT22;30138;20.964;105.830;2023-07-02T17:32:23;29.10;57.30
44435;DHT22;30138;20.964;105.830;2023-07-02T17:37:32;29.00;56.40
44435;DHT22;30138;20.964;105.830;2023-07-02T17:42:39;29.00;59.20
44435;DHT22;30138;20.964;105.830;2023-07-02T17:47:46;29.00;55.70
44435;DHT22;30138;20.964;105.830;2023-07-02T17:52:55;29.00;58.40
44435;DHT22;30138;20.964;105.830;2023-07-02T17:58:01;29.00;55.00
44435;DHT22;30138;20.964;105.830;2023-07-02T18:03:08;29.00;59.20
44435;DHT22;30138;20.964;105.830;2023-07-02T18:08:16;29.00;55.30
44435;DHT22;30138;20.964;105.830;2023-07-02T18:13:22;29.00;58.80
44435;DHT22;30138;20.964;105.830;2023-07-02T18:18:29;28.90;56.80
44435;DHT22;30138;20.964;105.830;2023-07-02T18:23:37;29.00;57.80
44435;DHT22;30138;20.964;105.830;2023-07-02T18:28:43;29.00;57.00
44435;DHT22;30138;20.964;105.830;2023-07-02T18:33:49;29.00;57.50
44435;DHT22;30138;20.964;105.830;2023-07-02T18:38:57;29.00;57.80
44435;DHT22;30138;20.964;105.830;2023-07-02T18:44:04;29.00;57.50
44435;DHT22;30138;20.964;105.830;2023-07-02T18:49:11;29.00;58.10
44435;DHT22;30138;20.964;105.830;2023-07-02T18:54:19;29.00;57.40
44435;DHT22;30138;20.964;105.830;2023-07-02T18:59:25;29.00;58.30
44435;DHT22;30138;20.964;105.830;2023-07-02T19:04:32;28.90;57.00
44435;DHT22;30138;20.964;105.830;2023-07-02T19:09:41;28.90;58.30
44435;DHT22;30138;20.964;105.830;2023-07-02T19:14:47;28.90;56.60
44435;DHT22;30138;20.964;105.830;2023-07-02T19:19:53;28.90;58.50
44435;DHT22;30138;20.964;105.830;2023-07-02T19:25:01;28.90;56.30
44435;DHT22;30138;20.964;105.830;2023-07-02T19:30:08;28.90;58.50
44435;DHT22;30138;20.964;105.830;2023-07-02T19:35:17;28.90;55.90
44435;DHT22;30138;20.964;105.830;2023-07-02T19:40:25;28.80;57.80
44435;DHT22;30138;20.964;105.830;2023-07-02T19:45:31;29.00;59.90
44435;DHT22;30138;20.964;105.830;2023-07-02T19:50:38;29.20;61.70
44435;DHT22;30138;20.964;105.830;2023-07-02T19:55:45;29.40;63.20
44435;DHT22;30138;20.964;105.830;2023-07-02T20:00:52;29.60;64.60
44435;DHT22;30138;20.964;105.830;2023-07-02T20:05:58;29.70;65.70
44435;DHT22;30138;20.964;105.830;2023-07-02T20:11:06;29.80;66.60
44435;DHT22;30138;20.964;105.830;2023-07-02T20:16:13;30.00;67.60
44435;DHT22;30138;20.964;105.830;2023-07-02T20:21:19;30.10;69.00
44435;DHT22;30138;20.964;105.830;2023-07-02T20:26:27;30.20;74.90
44435;DHT22;30138;20.964;105.830;2023-07-02T20:31:36;30.30;74.90
44435;DHT22;30138;20.964;105.830;2023-07-02T20:36:42;30.30;72.10
44435;DHT22;30138;20.964;105.830;2023-07-02T20:41:50;30.20;61.70
44435;DHT22;30138;20.964;105.830;2023-07-02T20:46:57;29.90;56.00
44435;DHT22;30138;20.964;105.830;2023-07-02T20:52:04;29.80;54.70
44435;DHT22;30138;20.964;105.830;2023-07-02T20:57:12;29.60;56.80
44435;DHT22;30138;20.964;105.830;2023-07-02T21:02:19;29.50;56.50
44435;DHT22;30138;20.964;105.830;2023-07-02T21:07:27;29.50;56.10
44435;DHT22;30138;20.964;105.830;2023-07-02T21:12:35;29.40;56.80
44435;DHT22;30138;20.964;105.830;2023-07-02T21:17:41;29.40;56.00
44435;DHT22;30138;20.964;105.830;2023-07-02T21:22:48;29.30;57.30
44435;DHT22;30138;20.964;105.830;2023-07-02T21:27:57;29.20;55.80
44435;DHT22;30138;20.964;105.830;2023-07-02T21:33:05;29.20;57.10
44435;DHT22;30138;20.964;105.830;2023-07-02T21:38:11;29.10;53.70
44435;DHT22;30138;20.964;105.830;2023-07-02T21:43:20;29.10;56.00
44435;DHT22;30138;20.964;105.830;2023-07-02T21:48:26;29.00;52.90
44435;DHT22;30138;20.964;105.830;2023-07-02T21:53:33;29.00;55.60
44435;DHT22;30138;20.964;105.830;2023-07-02T21:58:41;28.90;53.60
44435;DHT22;30138;20.964;105.830;2023-07-02T22:03:50;28.90;56.00
44435;DHT22;30138;20.964;105.830;2023-07-02T22:08:57;28.80;54.30
44435;DHT22;30138;20.964;105.830;2023-07-02T22:14:08;28.80;56.10
44435;DHT22;30138;20.964;105.830;2023-07-02T22:19:14;28.80;55.00
44435;DHT22;30138;20.964;105.830;2023-07-02T22:24:21;28.70;56.00
44435;DHT22;30138;20.964;105.830;2023-07-02T22:29:29;28.70;55.20
44435;DHT22;30138;20.964;105.830;2023-07-02T22:34:35;28.70;55.70
44435;DHT22;30138;20.964;105.830;2023-07-02T22:39:42;28.70;55.40
44435;DHT22;30138;20.964;105.830;2023-07-02T22:44:50;28.60;55.40
44435;DHT22;30138;20.964;105.830;2023-07-02T22:49:56;28.60;55.70
44435;DHT22;30138;20.964;105.830;2023-07-02T22:55:03;28.60;55.30
44435;DHT22;30138;20.964;105.830;2023-07-02T23:00:15;28.60;56.00
44435;DHT22;30138;20.964;105.830;2023-07-02T23:05:21;28.50;55.10
44435;DHT22;30138;20.964;105.830;2023-07-02T23:10:27;28.50;56.20
44435;DHT22;30138;20.964;105.830;2023-07-02T23:15:36;28.50;54.90
44435;DHT22;30138;20.964;105.830;2023-07-02T23:20:42;28.50;56.60
44435;DHT22;30138;20.964;105.830;2023-07-02T23:25:48;28.40;54.50
44435;DHT22;30138;20.964;105.830;2023-07-02T23:30:57;28.50;56.80
44435;DHT22;30138;20.964;105.830;2023-07-02T23:36:07;28.40;54.30
44435;DHT22;30138;20.964;105.830;2023-07-02T23:41:13;28.40;57.10
44435;DHT22;30138;20.964;105.830;2023-07-02T23:46:21;28.40;54.10
44435;DHT22;30138;20.964;105.830;2023-07-02T23:51:28;28.40;57.00
44435;DHT22;30138;20.964;105.830;2023-07-02T23:56:34;28.40;53.80
